createdAt,value
2023-03-29T00:00:03.383Z,983.01
2023-03-29T00:01:03.883Z,982.81
2023-03-29T00:02:03.613Z,982.89
2023-03-29T00:03:04.197Z,982.92
2023-03-29T00:04:03.926Z,982.98
2023-03-29T00:05:03.588Z,982.84
2023-03-29T00:06:03.672Z,983.01
2023-03-29T00:07:03.766Z,982.89
2023-03-29T00:08:03.677Z,982.89
2023-03-29T00:09:03.722Z,982.87
2023-03-29T00:10:04.216Z,982.92
2023-03-29T00:11:03.787Z,982.92
2023-03-29T00:12:03.358Z,982.92
2023-03-29T00:13:03.396Z,982.92
2023-03-29T00:14:03.324Z,982.84
2023-03-29T00:15:03.364Z,982.81
2023-03-29T00:16:03.872Z,982.70
2023-03-29T00:17:04.005Z,982.78
2023-03-29T00:18:03.052Z,982.65
2023-03-29T00:19:02.975Z,982.73
2023-03-29T00:20:03.030Z,982.86
2023-03-29T00:21:03.369Z,982.94
2023-03-29T00:22:02.936Z,982.70
2023-03-29T00:23:03.028Z,982.80
2023-03-29T00:24:03.099Z,982.73
2023-03-29T00:25:03.072Z,982.83
2023-03-29T00:26:05.255Z,982.83
2023-03-29T00:27:03.200Z,982.64
2023-03-29T00:28:03.131Z,982.88
2023-03-29T00:29:03.192Z,982.83
2023-03-29T00:30:03.229Z,982.75
2023-03-29T00:31:03.892Z,982.70
2023-03-29T00:32:03.214Z,982.67
2023-03-29T00:33:03.419Z,982.85
2023-03-29T00:34:03.412Z,982.80
2023-03-29T00:35:03.424Z,982.72
2023-03-29T00:36:03.610Z,982.69
2023-03-29T00:37:03.506Z,982.69
2023-03-29T00:38:03.617Z,982.80
2023-03-29T00:39:03.649Z,982.64
2023-03-29T00:40:03.710Z,982.52
2023-03-29T00:41:04.287Z,982.69
2023-03-29T00:42:02.966Z,982.55
2023-03-29T00:43:02.907Z,982.82
2023-03-29T00:44:03.078Z,982.69
2023-03-29T00:45:03.181Z,982.69
2023-03-29T00:46:03.249Z,982.88
2023-03-29T00:47:03.226Z,982.69
2023-03-29T00:48:03.469Z,982.79
2023-03-29T00:49:03.229Z,982.79
2023-03-29T00:50:03.283Z,982.91
2023-03-29T00:51:03.864Z,982.79
2023-03-29T00:52:03.377Z,982.82
2023-03-29T00:53:03.416Z,982.88
2023-03-29T00:54:03.342Z,982.85
2023-03-29T00:55:03.483Z,982.74
2023-03-29T00:56:03.592Z,982.93
2023-03-29T00:57:03.689Z,982.69
2023-03-29T00:58:03.722Z,982.82
2023-03-29T00:59:03.847Z,982.87
2023-03-29T01:00:03.868Z,982.71
2023-03-29T01:01:04.368Z,982.66
2023-03-29T01:02:03.089Z,982.66
2023-03-29T01:03:03.214Z,982.74
2023-03-29T01:04:03.255Z,982.84
2023-03-29T01:05:03.218Z,982.66
2023-03-29T01:06:03.160Z,982.66
2023-03-29T01:07:03.437Z,982.71
2023-03-29T01:08:03.248Z,982.54
2023-03-29T01:09:03.434Z,982.66
2023-03-29T01:10:03.368Z,982.68
2023-03-29T01:11:04.018Z,982.54
2023-03-29T01:12:03.360Z,982.65
2023-03-29T01:13:03.472Z,982.60
2023-03-29T01:14:03.383Z,982.48
2023-03-29T01:15:03.492Z,982.65
2023-03-29T01:16:03.771Z,982.57
2023-03-29T01:17:03.595Z,982.51
2023-03-29T01:18:03.691Z,982.45
2023-03-29T01:19:03.623Z,982.57
2023-03-29T01:20:03.572Z,982.51
2023-03-29T01:21:04.170Z,982.40
2023-03-29T01:22:03.677Z,982.40
2023-03-29T01:23:03.875Z,982.40
2023-03-29T01:24:03.814Z,982.40
2023-03-29T01:25:03.881Z,982.51
2023-03-29T01:26:03.894Z,982.37
2023-03-29T01:27:02.955Z,982.31
2023-03-29T01:28:02.980Z,982.25
2023-03-29T01:29:02.983Z,982.28
2023-03-29T01:30:03.040Z,982.28
2023-03-29T01:31:03.371Z,982.28
2023-03-29T01:32:03.388Z,982.25
2023-03-29T01:33:03.205Z,982.23
2023-03-29T01:34:03.267Z,982.17
2023-03-29T01:35:03.320Z,982.17
2023-03-29T01:36:03.360Z,982.34
2023-03-29T01:37:03.253Z,982.20
2023-03-29T01:38:03.371Z,982.06
2023-03-29T01:39:03.374Z,982.11
2023-03-29T01:40:03.476Z,982.09
2023-03-29T01:41:04.463Z,982.14
2023-03-29T01:42:03.491Z,981.89
2023-03-29T01:43:03.581Z,982.06
2023-03-29T01:44:03.736Z,982.03
2023-03-29T01:45:03.570Z,982.06
2023-03-29T01:46:03.850Z,982.03
2023-03-29T01:47:03.740Z,982.03
2023-03-29T01:48:03.846Z,981.97
2023-03-29T01:49:03.840Z,981.94
2023-03-29T01:50:03.807Z,981.92
2023-03-29T01:51:04.268Z,981.86
2023-03-29T01:52:03.783Z,981.86
2023-03-29T01:53:03.916Z,981.78
2023-03-29T01:54:03.836Z,981.92
2023-03-29T01:55:03.034Z,981.80
2023-03-29T01:56:03.872Z,981.69
2023-03-29T01:57:04.184Z,981.77
2023-03-29T01:58:02.940Z,981.83
2023-03-29T01:59:02.897Z,981.72
2023-03-29T02:00:03.039Z,981.86
2023-03-29T02:01:03.771Z,981.77
2023-03-29T02:02:03.184Z,981.56
2023-03-29T02:03:03.379Z,981.72
2023-03-29T02:04:03.152Z,981.91
2023-03-29T02:05:03.284Z,981.58
2023-03-29T02:06:03.226Z,981.69
2023-03-29T02:07:03.167Z,981.66
2023-03-29T02:08:03.198Z,981.50
2023-03-29T02:09:03.318Z,981.42
2023-03-29T02:10:03.369Z,981.33
2023-03-29T02:11:03.694Z,981.50
2023-03-29T02:12:03.484Z,981.28
2023-03-29T02:13:03.406Z,981.30
2023-03-29T02:14:03.391Z,981.39
2023-03-29T02:15:03.398Z,981.36
2023-03-29T02:16:03.489Z,981.16
2023-03-29T02:17:03.455Z,981.28
2023-03-29T02:18:03.540Z,981.25
2023-03-29T02:19:03.632Z,981.28
2023-03-29T02:20:03.612Z,981.30
2023-03-29T02:21:04.183Z,981.50
2023-03-29T02:22:03.703Z,981.30
2023-03-29T02:23:03.768Z,981.30
2023-03-29T02:24:03.858Z,981.28
2023-03-29T02:25:03.823Z,981.19
2023-03-29T02:26:03.873Z,981.30
2023-03-29T02:27:03.928Z,981.25
2023-03-29T02:28:03.030Z,981.22
2023-03-29T02:29:03.079Z,981.22
2023-03-29T02:30:03.162Z,981.42
2023-03-29T02:31:03.677Z,981.05
2023-03-29T02:32:03.312Z,981.44
2023-03-29T02:33:03.484Z,981.11
2023-03-29T02:34:03.516Z,981.08
2023-03-29T02:35:03.397Z,981.02
2023-03-29T02:36:03.577Z,981.02
2023-03-29T02:37:03.471Z,980.97
2023-03-29T02:38:03.625Z,980.88
2023-03-29T02:39:03.643Z,980.88
2023-03-29T02:40:03.641Z,980.85
2023-03-29T02:41:04.145Z,980.94
2023-03-29T02:42:03.715Z,980.97
2023-03-29T02:43:03.673Z,980.85
2023-03-29T02:44:03.698Z,980.94
2023-03-29T02:45:03.718Z,980.97
2023-03-29T02:46:03.711Z,980.80
2023-03-29T02:47:03.790Z,980.85
2023-03-29T02:48:03.806Z,980.85
2023-03-29T02:49:03.758Z,980.77
2023-03-29T02:50:03.929Z,980.88
2023-03-29T02:51:03.441Z,980.83
2023-03-29T02:52:03.008Z,980.80
2023-03-29T02:53:03.062Z,980.91
2023-03-29T02:54:03.088Z,980.83
2023-03-29T02:55:03.107Z,980.80
2023-03-29T02:56:02.941Z,980.77
2023-03-29T02:57:03.080Z,980.74
2023-03-29T02:58:03.137Z,980.60
2023-03-29T02:59:03.133Z,980.71
2023-03-29T03:00:03.108Z,980.85
2023-03-29T03:01:03.728Z,980.63
2023-03-29T03:02:03.241Z,980.58
2023-03-29T03:03:03.381Z,980.46
2023-03-29T03:04:03.299Z,980.60
2023-03-29T03:05:03.275Z,980.55
2023-03-29T03:06:03.257Z,980.63
2023-03-29T03:07:03.352Z,980.49
2023-03-29T03:08:03.236Z,980.55
2023-03-29T03:09:03.314Z,980.41
2023-03-29T03:10:03.471Z,980.46
2023-03-29T03:11:04.069Z,980.49
2023-03-29T03:12:03.351Z,980.49
2023-03-29T03:13:03.499Z,980.52
2023-03-29T03:14:03.587Z,980.38
2023-03-29T03:15:03.569Z,980.47
2023-03-29T03:16:03.739Z,980.49
2023-03-29T03:17:05.237Z,980.41
2023-03-29T03:18:04.175Z,980.44
2023-03-29T03:19:03.881Z,980.52
2023-03-29T03:20:03.858Z,980.35
2023-03-29T03:21:04.170Z,980.52
2023-03-29T03:22:03.873Z,980.41
2023-03-29T03:23:03.855Z,980.33
2023-03-29T03:24:02.918Z,980.35
2023-03-29T03:25:03.100Z,980.41
2023-03-29T03:26:03.085Z,980.44
2023-03-29T03:27:03.050Z,980.30
2023-03-29T03:28:03.033Z,980.27
2023-03-29T03:29:03.050Z,980.33
2023-03-29T03:30:03.181Z,980.14
2023-03-29T03:31:03.699Z,980.33
2023-03-29T03:32:03.615Z,980.17
2023-03-29T03:33:03.587Z,980.33
2023-03-29T03:34:03.495Z,980.17
2023-03-29T03:35:03.609Z,980.22
2023-03-29T03:36:03.701Z,980.17
2023-03-29T03:37:03.662Z,980.17
2023-03-29T03:38:03.788Z,980.25
2023-03-29T03:39:03.854Z,980.22
2023-03-29T03:40:03.867Z,980.30
2023-03-29T03:41:03.231Z,980.06
2023-03-29T03:42:03.175Z,980.25
2023-03-29T03:43:03.126Z,980.06
2023-03-29T03:44:03.072Z,980.14
2023-03-29T03:45:03.128Z,980.09
2023-03-29T03:46:03.134Z,980.17
2023-03-29T03:47:03.071Z,980.17
2023-03-29T03:48:03.170Z,980.14
2023-03-29T03:49:03.037Z,980.22
2023-03-29T03:50:03.041Z,980.09
2023-03-29T03:51:03.467Z,980.22
2023-03-29T03:52:03.086Z,980.06
2023-03-29T03:53:03.037Z,980.14
2023-03-29T03:54:03.141Z,980.28
2023-03-29T03:55:03.205Z,980.30
2023-03-29T03:56:03.162Z,980.12
2023-03-29T03:57:03.257Z,980.06
2023-03-29T03:58:03.246Z,980.17
2023-03-29T03:59:03.151Z,980.30
2023-03-29T04:00:03.277Z,980.28
2023-03-29T04:01:03.517Z,980.17
2023-03-29T04:02:03.314Z,980.06
2023-03-29T04:03:03.719Z,980.14
2023-03-29T04:04:03.234Z,980.14
2023-03-29T04:05:03.000Z,980.25
2023-03-29T04:06:03.047Z,980.14
2023-03-29T04:07:03.197Z,980.00
2023-03-29T04:08:03.289Z,980.06
2023-03-29T04:09:03.286Z,980.06
2023-03-29T04:10:03.415Z,980.12
2023-03-29T04:11:03.921Z,980.06
2023-03-29T04:12:03.447Z,979.95
2023-03-29T04:13:03.357Z,980.00
2023-03-29T04:14:03.412Z,980.00
2023-03-29T04:15:03.543Z,980.01
2023-03-29T04:16:03.614Z,980.06
2023-03-29T04:17:03.467Z,980.03
2023-03-29T04:18:03.608Z,980.09
2023-03-29T04:19:03.463Z,980.09
2023-03-29T04:20:03.462Z,980.06
2023-03-29T04:21:04.027Z,980.06
2023-03-29T04:22:03.407Z,980.06
2023-03-29T04:23:03.442Z,980.06
2023-03-29T04:24:03.537Z,979.98
2023-03-29T04:25:03.848Z,980.01
2023-03-29T04:26:02.967Z,980.12
2023-03-29T04:27:03.021Z,979.95
2023-03-29T04:28:03.004Z,980.01
2023-03-29T04:29:03.082Z,979.98
2023-03-29T04:30:03.178Z,980.04
2023-03-29T04:31:03.664Z,979.92
2023-03-29T04:32:03.217Z,979.95
2023-03-29T04:33:03.447Z,979.90
2023-03-29T04:34:03.394Z,979.87
2023-03-29T04:35:03.481Z,979.95
2023-03-29T04:36:03.546Z,979.85
2023-03-29T04:37:03.532Z,979.90
2023-03-29T04:38:03.434Z,979.80
2023-03-29T04:39:03.364Z,979.87
2023-03-29T04:40:03.351Z,979.82
2023-03-29T04:41:03.720Z,979.83
2023-03-29T04:42:03.363Z,979.90
2023-03-29T04:43:03.423Z,980.01
2023-03-29T04:44:03.384Z,979.90
2023-03-29T04:45:03.547Z,979.93
2023-03-29T04:46:03.555Z,979.87
2023-03-29T04:47:03.484Z,979.74
2023-03-29T04:48:03.560Z,979.83
2023-03-29T04:49:03.627Z,979.90
2023-03-29T04:50:03.718Z,979.96
2023-03-29T04:51:04.077Z,979.83
2023-03-29T04:52:03.673Z,979.90
2023-03-29T04:53:03.861Z,979.87
2023-03-29T04:54:03.741Z,979.68
2023-03-29T04:55:03.796Z,979.83
2023-03-29T04:56:03.848Z,979.69
2023-03-29T04:57:03.937Z,979.74
2023-03-29T04:58:03.881Z,979.77
2023-03-29T04:59:03.050Z,979.60
2023-03-29T05:00:03.062Z,979.63
2023-03-29T05:01:03.621Z,979.71
2023-03-29T05:02:03.353Z,979.71
2023-03-29T05:03:03.205Z,979.69
2023-03-29T05:04:03.299Z,979.60
2023-03-29T05:05:03.259Z,979.60
2023-03-29T05:06:03.381Z,979.77
2023-03-29T05:07:03.360Z,979.63
2023-03-29T05:08:03.349Z,979.68
2023-03-29T05:09:03.481Z,979.54
2023-03-29T05:10:03.422Z,979.63
2023-03-29T05:11:04.038Z,979.66
2023-03-29T05:12:03.648Z,979.68
2023-03-29T05:13:03.608Z,979.68
2023-03-29T05:14:03.777Z,979.54
2023-03-29T05:15:03.727Z,979.68
2023-03-29T05:16:03.955Z,979.60
2023-03-29T05:17:03.921Z,979.57
2023-03-29T05:18:03.128Z,979.60
2023-03-29T05:19:02.958Z,979.60
2023-03-29T05:20:03.199Z,979.60
2023-03-29T05:21:03.590Z,979.54
2023-03-29T05:22:03.387Z,979.54
2023-03-29T05:23:03.336Z,979.60
2023-03-29T05:24:03.317Z,979.46
2023-03-29T05:25:03.438Z,979.60
2023-03-29T05:26:03.446Z,979.46
2023-03-29T05:27:03.472Z,979.46
2023-03-29T05:28:03.506Z,979.60
2023-03-29T05:29:03.524Z,979.57
2023-03-29T05:30:02.926Z,979.54
2023-03-29T05:31:03.515Z,979.48
2023-03-29T05:32:03.305Z,979.37
2023-03-29T05:33:03.175Z,979.40
2023-03-29T05:34:03.176Z,979.37
2023-03-29T05:35:03.157Z,979.43
2023-03-29T05:36:03.207Z,979.40
2023-03-29T05:37:03.165Z,979.23
2023-03-29T05:38:03.232Z,979.26
2023-03-29T05:39:03.204Z,979.37
2023-03-29T05:40:06.472Z,979.40
2023-03-29T05:41:03.752Z,979.48
2023-03-29T05:42:03.280Z,979.26
2023-03-29T05:43:03.437Z,979.37
2023-03-29T05:44:03.459Z,979.40
2023-03-29T05:45:03.392Z,979.31
2023-03-29T05:46:03.671Z,979.31
2023-03-29T05:47:03.494Z,979.39
2023-03-29T05:48:03.608Z,979.48
2023-03-29T05:49:03.650Z,979.39
2023-03-29T05:50:03.635Z,979.48
2023-03-29T05:51:04.160Z,979.36
2023-03-29T05:52:03.606Z,979.34
2023-03-29T05:53:03.562Z,979.31
2023-03-29T05:54:03.612Z,979.31
2023-03-29T05:55:03.796Z,979.39
2023-03-29T05:56:03.797Z,979.30
2023-03-29T05:57:03.966Z,979.28
2023-03-29T05:58:03.925Z,979.28
2023-03-29T05:59:02.910Z,979.16
2023-03-29T06:00:03.451Z,979.22
2023-03-29T06:01:03.754Z,979.27
2023-03-29T06:02:03.361Z,979.24
2023-03-29T06:03:21.047Z,979.10
2023-03-29T06:04:03.456Z,979.33
2023-03-29T06:05:03.621Z,979.21
2023-03-29T06:06:03.503Z,979.33
2023-03-29T06:07:03.549Z,979.33
2023-03-29T06:08:03.583Z,979.21
2023-03-29T06:09:03.761Z,979.30
2023-03-29T06:10:03.740Z,979.32
2023-03-29T06:11:05.676Z,979.32
2023-03-29T06:12:03.903Z,979.29
2023-03-29T06:13:03.904Z,979.21
2023-03-29T06:14:03.883Z,979.32
2023-03-29T06:15:04.040Z,979.43
2023-03-29T06:16:03.854Z,979.35
2023-03-29T06:17:03.163Z,979.46
2023-03-29T06:18:03.172Z,979.46
2023-03-29T06:19:02.958Z,979.49
2023-03-29T06:20:02.992Z,979.40
2023-03-29T06:21:03.882Z,979.37
2023-03-29T06:22:03.034Z,979.46
2023-03-29T06:23:03.109Z,979.35
2023-03-29T06:24:03.197Z,979.37
2023-03-29T06:25:03.144Z,979.43
2023-03-29T06:26:03.350Z,979.35
2023-03-29T06:27:03.222Z,979.43
2023-03-29T06:28:03.363Z,979.48
2023-03-29T06:29:03.326Z,979.32
2023-03-29T06:30:03.339Z,979.43
2023-03-29T06:31:04.897Z,979.43
2023-03-29T06:32:03.362Z,979.37
2023-03-29T06:33:03.518Z,979.43
2023-03-29T06:34:03.381Z,979.48
2023-03-29T06:35:03.448Z,979.43
2023-03-29T06:36:03.490Z,979.37
2023-03-29T06:37:03.371Z,979.34
2023-03-29T06:38:03.323Z,979.37
2023-03-29T06:39:03.471Z,979.45
2023-03-29T06:40:03.379Z,979.42
2023-03-29T06:41:04.409Z,979.48
2023-03-29T06:42:20.962Z,979.42
2023-03-29T06:43:03.647Z,979.34
2023-03-29T06:44:03.775Z,979.42
2023-03-29T06:45:03.826Z,979.45
2023-03-29T06:46:03.919Z,979.45
2023-03-29T06:47:03.847Z,979.31
2023-03-29T06:48:04.113Z,979.47
2023-03-29T06:49:03.006Z,979.42
2023-03-29T06:50:02.981Z,979.47
2023-03-29T06:51:03.458Z,979.47
2023-03-29T06:52:03.060Z,979.58
2023-03-29T06:53:03.195Z,979.38
2023-03-29T06:54:03.104Z,979.44
2023-03-29T06:55:03.211Z,979.47
2023-03-29T06:56:03.265Z,979.55
2023-03-29T06:57:03.420Z,979.49
2023-03-29T06:58:03.449Z,979.44
2023-03-29T06:59:03.421Z,979.46
2023-03-29T07:00:03.454Z,979.35
2023-03-29T07:01:04.784Z,979.41
2023-03-29T07:02:03.677Z,979.21
2023-03-29T07:03:03.636Z,979.57
2023-03-29T07:04:03.718Z,979.49
2023-03-29T07:05:03.793Z,979.21
2023-03-29T07:06:02.978Z,979.43
2023-03-29T07:07:02.979Z,979.32
2023-03-29T07:08:03.013Z,979.29
2023-03-29T07:09:03.004Z,979.34
2023-03-29T07:10:03.103Z,979.32
2023-03-29T07:11:04.180Z,979.37
2023-03-29T07:12:03.223Z,979.40
2023-03-29T07:13:03.198Z,979.40
2023-03-29T07:14:03.364Z,979.45
2023-03-29T07:15:03.430Z,979.34
2023-03-29T07:16:03.522Z,979.39
2023-03-29T07:17:03.494Z,979.31
2023-03-29T07:18:03.635Z,979.45
2023-03-29T07:19:03.511Z,979.42
2023-03-29T07:20:03.519Z,979.47
2023-03-29T07:21:03.687Z,979.44
2023-03-29T07:22:03.540Z,979.27
2023-03-29T07:23:03.522Z,979.44
2023-03-29T07:24:03.586Z,979.36
2023-03-29T07:25:03.567Z,979.41
2023-03-29T07:26:03.808Z,979.47
2023-03-29T07:27:05.315Z,979.52
2023-03-29T07:28:03.795Z,979.41
2023-03-29T07:29:03.753Z,979.52
2023-03-29T07:30:03.873Z,979.38
2023-03-29T07:31:03.406Z,979.54
2023-03-29T07:32:03.060Z,979.54
2023-03-29T07:33:03.356Z,979.68
2023-03-29T07:34:03.095Z,979.51
2023-03-29T07:35:03.079Z,979.60
2023-03-29T07:36:03.194Z,979.73
2023-03-29T07:37:03.122Z,979.65
2023-03-29T07:38:03.108Z,979.68
2023-03-29T07:39:03.244Z,979.53
2023-03-29T07:40:03.287Z,979.62
2023-03-29T07:41:03.804Z,979.62
2023-03-29T07:42:03.100Z,979.67
2023-03-29T07:43:03.077Z,979.67
2023-03-29T07:44:04.774Z,979.67
2023-03-29T07:45:03.066Z,979.58
2023-03-29T07:46:03.203Z,979.64
2023-03-29T07:47:03.050Z,979.72
2023-03-29T07:48:03.111Z,979.66
2023-03-29T07:49:03.105Z,979.66
2023-03-29T07:50:03.101Z,979.74
2023-03-29T07:51:03.570Z,979.60
2023-03-29T07:52:03.213Z,979.68
2023-03-29T07:53:03.109Z,979.68
2023-03-29T07:54:03.222Z,979.73
2023-03-29T07:55:03.804Z,979.76
2023-03-29T07:56:03.276Z,979.62
2023-03-29T07:57:03.362Z,979.67
2023-03-29T07:58:03.106Z,979.79
2023-03-29T07:59:03.124Z,979.81
2023-03-29T08:00:03.146Z,979.86
2023-03-29T08:01:03.609Z,979.78
2023-03-29T08:02:03.052Z,979.84
2023-03-29T08:03:03.215Z,979.84
2023-03-29T08:04:03.264Z,979.84
2023-03-29T08:05:03.080Z,979.64
2023-03-29T08:06:02.917Z,979.75
2023-03-29T08:07:02.929Z,979.81
2023-03-29T08:08:03.068Z,979.78
2023-03-29T08:09:02.888Z,979.78
2023-03-29T08:10:03.020Z,979.78
2023-03-29T08:11:03.391Z,980.02
2023-03-29T08:12:03.002Z,979.75
2023-03-29T08:13:03.064Z,979.80
2023-03-29T08:14:03.130Z,979.69
2023-03-29T08:15:03.198Z,979.93
2023-03-29T08:16:03.115Z,979.80
2023-03-29T08:17:03.244Z,979.80
2023-03-29T08:18:03.165Z,979.80
2023-03-29T08:19:03.035Z,979.82
2023-03-29T08:20:03.142Z,979.87
2023-03-29T08:21:03.848Z,979.82
2023-03-29T08:22:03.359Z,979.87
2023-03-29T08:23:03.288Z,979.74
2023-03-29T08:24:03.473Z,979.79
2023-03-29T08:25:03.460Z,979.73
2023-03-29T08:26:03.361Z,979.73
2023-03-29T08:27:03.406Z,979.82
2023-03-29T08:28:03.321Z,979.79
2023-03-29T08:29:03.461Z,979.62
2023-03-29T08:30:03.483Z,979.67
2023-03-29T08:31:04.200Z,979.75
2023-03-29T08:32:03.653Z,979.75
2023-03-29T08:33:03.864Z,979.69
2023-03-29T08:34:03.696Z,979.75
2023-03-29T08:35:03.710Z,979.72
2023-03-29T08:36:03.839Z,979.80
2023-03-29T08:37:03.905Z,979.83
2023-03-29T08:38:03.008Z,979.71
2023-03-29T08:39:03.026Z,979.71
2023-03-29T08:40:03.023Z,979.77
2023-03-29T08:41:03.264Z,979.79
2023-03-29T08:42:03.154Z,979.79
2023-03-29T08:43:03.272Z,979.76
2023-03-29T08:44:03.410Z,979.76
2023-03-29T08:45:03.491Z,979.79
2023-03-29T08:46:03.546Z,979.81
2023-03-29T08:47:03.448Z,979.91
2023-03-29T08:48:03.510Z,979.91
2023-03-29T08:49:03.893Z,979.81
2023-03-29T08:50:03.477Z,979.91
2023-03-29T08:51:03.925Z,979.80
2023-03-29T08:52:03.573Z,979.88
2023-03-29T08:53:03.566Z,980.02
2023-03-29T08:54:03.461Z,979.87
2023-03-29T08:55:03.186Z,979.71
2023-03-29T08:56:03.086Z,979.95
2023-03-29T08:57:03.233Z,979.87
2023-03-29T08:58:03.082Z,979.85
2023-03-29T08:59:03.092Z,979.79
2023-03-29T09:00:03.248Z,979.76
2023-03-29T09:01:03.684Z,979.78
2023-03-29T09:02:03.222Z,979.78
2023-03-29T09:03:03.423Z,979.75
2023-03-29T09:04:03.628Z,979.80
2023-03-29T09:05:03.270Z,979.74
2023-03-29T09:06:03.221Z,979.65
2023-03-29T09:07:03.225Z,979.89
2023-03-29T09:08:03.440Z,979.86
2023-03-29T09:09:03.374Z,979.86
2023-03-29T09:10:03.264Z,979.78
2023-03-29T09:11:03.878Z,979.80
2023-03-29T09:12:03.707Z,979.87
2023-03-29T09:13:03.184Z,979.85
2023-03-29T09:14:03.078Z,979.92
2023-03-29T09:15:04.007Z,979.87
2023-03-29T09:16:04.063Z,980.00
2023-03-29T09:17:03.067Z,979.97
2023-03-29T09:18:03.187Z,979.86
2023-03-29T09:19:03.108Z,979.97
2023-03-29T09:20:03.163Z,979.99
2023-03-29T09:21:03.321Z,980.05
2023-03-29T09:22:03.266Z,980.05
2023-03-29T09:23:03.232Z,980.04
2023-03-29T09:24:03.409Z,980.07
2023-03-29T09:25:03.366Z,980.15
2023-03-29T09:26:03.272Z,980.04
2023-03-29T09:27:03.266Z,980.09
2023-03-29T09:28:03.375Z,980.06
2023-03-29T09:29:03.236Z,980.25
2023-03-29T09:30:03.260Z,980.14
2023-03-29T09:31:03.761Z,980.11
2023-03-29T09:32:03.455Z,980.08
2023-03-29T09:33:03.380Z,980.11
2023-03-29T09:34:03.266Z,980.14
2023-03-29T09:35:03.325Z,980.08
2023-03-29T09:36:03.519Z,980.24
2023-03-29T09:37:03.381Z,980.21
2023-03-29T09:38:03.474Z,980.07
2023-03-29T09:39:03.465Z,980.21
2023-03-29T09:40:05.419Z,980.13
2023-03-29T09:41:03.950Z,980.29
2023-03-29T09:42:03.414Z,980.46
2023-03-29T09:43:03.396Z,980.29
2023-03-29T09:44:03.364Z,980.15
2023-03-29T09:45:03.459Z,980.40
2023-03-29T09:46:03.632Z,980.37
2023-03-29T09:47:03.676Z,980.28
2023-03-29T09:48:03.847Z,980.34
2023-03-29T09:49:04.586Z,980.06
2023-03-29T09:50:03.678Z,980.17
2023-03-29T09:51:04.233Z,980.22
2023-03-29T09:52:03.692Z,980.22
2023-03-29T09:53:03.831Z,980.36
2023-03-29T09:54:03.932Z,980.36
2023-03-29T09:55:03.305Z,980.33
2023-03-29T09:56:03.031Z,980.41
2023-03-29T09:57:03.052Z,980.53
2023-03-29T09:58:03.096Z,980.35
2023-03-29T09:59:03.163Z,980.41
2023-03-29T10:00:03.183Z,980.38
2023-03-29T10:01:03.895Z,980.52
2023-03-29T10:02:03.225Z,980.41
2023-03-29T10:03:03.285Z,980.49
2023-03-29T10:04:03.377Z,980.49
2023-03-29T10:05:03.351Z,980.49
2023-03-29T10:06:03.329Z,980.46
2023-03-29T10:07:03.379Z,980.55
2023-03-29T10:08:03.361Z,980.49
2023-03-29T10:09:03.793Z,980.55
2023-03-29T10:10:03.481Z,980.55
2023-03-29T10:11:04.342Z,980.55
2023-03-29T10:12:03.810Z,980.46
2023-03-29T10:13:03.855Z,980.49
2023-03-29T10:14:05.129Z,980.43
2023-03-29T10:15:03.065Z,980.43
2023-03-29T10:16:03.775Z,980.37
2023-03-29T10:17:03.518Z,980.40
2023-03-29T10:18:04.015Z,980.37
2023-03-29T10:19:03.794Z,980.34
2023-03-29T10:20:05.290Z,980.40
2023-03-29T10:21:04.423Z,980.43
2023-03-29T10:22:03.855Z,980.43
2023-03-29T10:23:03.798Z,980.54
2023-03-29T10:24:03.855Z,980.54
2023-03-29T10:25:03.951Z,980.40
2023-03-29T10:26:02.947Z,980.57
2023-03-29T10:27:03.038Z,980.60
2023-03-29T10:28:02.974Z,980.48
2023-03-29T10:29:02.978Z,980.40
2023-03-29T10:30:02.943Z,980.54
2023-03-29T10:31:03.356Z,980.51
2023-03-29T10:32:03.168Z,980.46
2023-03-29T10:33:03.345Z,980.46
2023-03-29T10:34:03.104Z,980.63
2023-03-29T10:35:03.244Z,980.51
2023-03-29T10:36:03.372Z,980.57
2023-03-29T10:37:03.142Z,980.54
2023-03-29T10:38:03.245Z,980.37
2023-03-29T10:39:06.556Z,980.40
2023-03-29T10:40:03.437Z,980.52
2023-03-29T10:41:03.828Z,980.43
2023-03-29T10:42:03.579Z,980.40
2023-03-29T10:43:03.656Z,980.60
2023-03-29T10:44:03.615Z,980.40
2023-03-29T10:45:03.723Z,980.29
2023-03-29T10:46:03.906Z,980.37
2023-03-29T10:47:02.979Z,980.31
2023-03-29T10:48:03.108Z,980.40
2023-03-29T10:49:03.030Z,980.34
2023-03-29T10:50:03.016Z,980.30
2023-03-29T10:51:03.416Z,980.27
2023-03-29T10:52:03.907Z,980.24
2023-03-29T10:53:03.892Z,980.16
2023-03-29T10:54:03.748Z,980.10
2023-03-29T10:55:03.784Z,980.09
2023-03-29T10:56:03.748Z,980.03
2023-03-29T10:57:03.844Z,980.03
2023-03-29T10:58:03.779Z,979.97
2023-03-29T10:59:03.752Z,979.94
2023-03-29T11:00:03.816Z,980.05
2023-03-29T11:01:04.529Z,980.14
2023-03-29T11:02:03.200Z,980.17
2023-03-29T11:03:03.249Z,980.02
2023-03-29T11:04:03.521Z,979.91
2023-03-29T11:05:03.287Z,980.02
2023-03-29T11:06:03.305Z,979.93
2023-03-29T11:07:03.381Z,979.88
2023-03-29T11:08:03.454Z,979.93
2023-03-29T11:09:03.321Z,979.96
2023-03-29T11:10:03.313Z,980.04
2023-03-29T11:11:03.780Z,980.10
2023-03-29T11:12:16.512Z,979.93
2023-03-29T11:13:03.416Z,980.04
2023-03-29T11:14:03.335Z,980.13
2023-03-29T11:15:03.425Z,980.01
2023-03-29T11:16:03.471Z,980.15
2023-03-29T11:17:03.337Z,980.18
2023-03-29T11:18:03.547Z,980.15
2023-03-29T11:19:03.461Z,980.29
2023-03-29T11:20:05.535Z,980.18
2023-03-29T11:21:08.539Z,980.15
2023-03-29T11:22:03.585Z,980.29
2023-03-29T11:23:03.554Z,980.12
2023-03-29T11:24:03.687Z,980.31
2023-03-29T11:25:03.610Z,980.26
2023-03-29T11:26:03.654Z,980.15
2023-03-29T11:27:03.714Z,980.15
2023-03-29T11:28:03.824Z,980.03
2023-03-29T11:29:03.899Z,980.15
2023-03-29T11:30:03.802Z,980.25
2023-03-29T11:31:04.312Z,980.08
2023-03-29T11:32:03.905Z,980.14
2023-03-29T11:33:04.007Z,980.17
2023-03-29T11:34:02.969Z,980.14
2023-03-29T11:35:03.945Z,980.22
2023-03-29T11:36:03.100Z,980.14
2023-03-29T11:37:03.148Z,980.08
2023-03-29T11:38:03.051Z,980.17
2023-03-29T11:39:02.976Z,980.31
2023-03-29T11:40:03.084Z,980.39
2023-03-29T11:41:03.530Z,980.33
2023-03-29T11:42:03.047Z,980.34
2023-03-29T11:43:02.965Z,980.42
2023-03-29T11:44:03.984Z,980.39
2023-03-29T11:45:02.995Z,980.25
2023-03-29T11:46:03.000Z,980.25
2023-03-29T11:47:03.039Z,980.22
2023-03-29T11:48:03.079Z,980.25
2023-03-29T11:49:03.069Z,980.14
2023-03-29T11:50:02.961Z,980.15
2023-03-29T11:51:03.364Z,980.00
2023-03-29T11:52:03.052Z,980.06
2023-03-29T11:53:03.071Z,980.17
2023-03-29T11:54:03.033Z,980.06
2023-03-29T11:55:03.033Z,980.08
2023-03-29T11:56:03.076Z,980.08
2023-03-29T11:57:03.193Z,980.14
2023-03-29T11:58:03.059Z,979.97
2023-03-29T11:59:03.047Z,980.00
2023-03-29T12:00:02.999Z,979.94
2023-03-29T12:01:03.639Z,979.97
2023-03-29T12:02:03.212Z,979.97
2023-03-29T12:03:03.293Z,979.97
2023-03-29T12:04:03.211Z,980.06
2023-03-29T12:05:03.052Z,979.89
2023-03-29T12:06:03.074Z,979.86
2023-03-29T12:07:03.118Z,979.84
2023-03-29T12:08:03.030Z,979.84
2023-03-29T12:09:03.000Z,979.67
2023-03-29T12:10:03.135Z,979.86
2023-03-29T12:11:04.645Z,979.75
2023-03-29T12:12:03.327Z,979.64
2023-03-29T12:13:03.222Z,979.78
2023-03-29T12:14:03.397Z,979.84
2023-03-29T12:15:03.377Z,979.64
2023-03-29T12:16:03.451Z,979.72
2023-03-29T12:17:03.569Z,979.72
2023-03-29T12:18:03.684Z,979.61
2023-03-29T12:19:03.363Z,979.72
2023-03-29T12:20:03.382Z,979.78
2023-03-29T12:21:03.345Z,979.75
2023-03-29T12:22:03.384Z,979.69
2023-03-29T12:23:03.319Z,979.57
2023-03-29T12:24:03.310Z,979.63
2023-03-29T12:25:03.355Z,979.51
2023-03-29T12:26:03.460Z,979.63
2023-03-29T12:27:03.330Z,979.71
2023-03-29T12:28:03.375Z,979.65